createdAt,value
2022-10-21T00:01:20.682Z,98183.56
2022-10-21T00:03:47.795Z,98169.06
2022-10-21T00:06:14.873Z,98160.41
2022-10-21T00:08:42.021Z,98176.53
2022-10-21T00:11:10.093Z,98164.75
2022-10-21T00:13:39.430Z,98158.56
2022-10-21T00:16:10.432Z,98164.13
2022-10-21T00:18:38.226Z,98158.75
2022-10-21T00:21:06.500Z,98158.75
2022-10-21T00:23:33.667Z,98169.72
2022-10-21T00:26:00.959Z,98166.19
2022-10-21T00:28:28.122Z,98173.63
2022-10-21T00:30:58.006Z,98190.56
2022-10-21T00:33:26.597Z,98197.41
2022-10-21T00:35:54.762Z,98189.34
2022-10-21T00:40:54.096Z,98201.94
2022-10-21T00:43:21.478Z,98199.25
2022-10-21T00:45:49.951Z,98202.16
2022-10-21T00:48:17.045Z,98215.00
2022-10-21T00:50:54.284Z,98207.97
2022-10-21T00:53:22.311Z,98204.66
2022-10-21T00:55:54.175Z,98199.69
2022-10-21T00:58:22.600Z,98198.28
2022-10-21T01:00:51.674Z,98198.47
2022-10-21T01:03:18.867Z,98208.19
2022-10-21T01:05:46.124Z,98216.25
2022-10-21T01:08:13.323Z,98221.00
2022-10-21T01:10:40.969Z,98223.06
2022-10-21T01:13:15.668Z,98215.81
2022-10-21T01:16:03.404Z,98209.63
2022-10-21T01:18:39.317Z,98207.38
2022-10-21T01:21:16.918Z,98204.69
2022-10-21T01:23:49.937Z,98194.56
2022-10-21T01:26:16.995Z,98200.16
2022-10-21T01:29:06.389Z,98200.34
2022-10-21T01:31:42.747Z,98194.78
2022-10-21T01:34:35.899Z,98186.09
2022-10-21T01:37:08.993Z,98174.53
2022-10-21T01:39:43.288Z,98179.91
2022-10-21T01:42:31.125Z,98177.63
2022-10-21T01:45:36.920Z,98176.19
2022-10-21T01:48:24.313Z,98176.41
2022-10-21T01:50:58.458Z,98174.75
2022-10-21T01:53:29.437Z,98174.34
2022-10-21T01:55:58.583Z,98187.34
2022-10-21T01:58:28.194Z,98175.78
2022-10-21T02:00:56.560Z,98170.03
2022-10-21T02:03:26.702Z,98171.88
2022-10-21T02:05:53.828Z,98179.09
2022-10-21T02:08:21.118Z,98184.47
2022-10-21T02:10:49.619Z,98179.50
2022-10-21T02:13:20.381Z,98170.81
2022-10-21T02:15:47.673Z,98164.88
2022-10-21T02:18:19.321Z,98159.28
2022-10-21T02:20:48.615Z,98172.09
2022-10-21T02:23:17.203Z,98172.72
2022-10-21T02:25:47.870Z,98167.94
2022-10-21T02:28:15.070Z,98175.41
2022-10-21T02:30:48.032Z,98163.84
2022-10-21T02:33:19.305Z,98161.16
2022-10-21T02:35:53.206Z,98159.69
2022-10-21T02:38:28.858Z,98167.53
2022-10-21T02:40:55.971Z,98175.41
2022-10-21T02:43:27.667Z,98165.47
2022-10-21T02:45:59.080Z,98172.47
2022-10-21T02:48:26.299Z,98191.06
2022-10-21T02:50:53.511Z,98180.34
2022-10-21T02:53:20.609Z,98173.50
2022-10-21T02:55:47.687Z,98183.66
2022-10-21T02:58:14.745Z,98171.88
2022-10-21T03:00:41.795Z,98166.50
2022-10-21T03:03:08.932Z,98162.19
2022-10-21T03:05:35.962Z,98161.97
2022-10-21T03:08:03.026Z,98163.00
2022-10-21T03:10:30.176Z,98165.06
2022-10-21T03:12:57.342Z,98161.34
2022-10-21T03:15:25.313Z,98158.88
2022-10-21T03:17:52.428Z,98159.28
2022-10-21T03:20:19.461Z,98154.72
2022-10-21T03:22:46.537Z,98148.56
2022-10-21T03:25:13.666Z,98146.47
2022-10-21T03:27:40.746Z,98156.38
2022-10-21T03:30:08.641Z,98168.97
2022-10-21T03:32:36.057Z,98159.06
2022-10-21T03:35:03.315Z,98150.81
2022-10-21T03:37:30.411Z,98160.91
2022-10-21T03:39:57.416Z,98158.22
2022-10-21T03:42:24.516Z,98153.69
2022-10-21T03:44:51.579Z,98139.44
2022-10-21T03:47:18.653Z,98145.63
2022-10-21T03:49:45.759Z,98136.56
2022-10-21T03:52:12.791Z,98132.84
2022-10-21T03:54:39.805Z,98134.91
2022-10-21T03:57:06.895Z,98151.00
2022-10-21T03:59:33.933Z,98145.22
2022-10-21T04:02:01.088Z,98146.88
2022-10-21T04:04:28.242Z,98135.94
2022-10-21T04:06:55.263Z,98117.97
2022-10-21T04:09:22.303Z,98126.63
2022-10-21T04:11:49.411Z,98120.22
2022-10-21T04:14:16.424Z,98111.13
2022-10-21T04:16:43.528Z,98108.44
2022-10-21T04:19:16.308Z,98111.97
2022-10-21T04:21:43.473Z,98111.13
2022-10-21T04:24:10.502Z,98113.63
2022-10-21T04:26:37.497Z,98106.38
2022-10-21T04:29:04.518Z,98104.72
2022-10-21T04:31:32.257Z,98100.38
2022-10-21T04:33:59.556Z,98097.69
2022-10-21T04:36:26.578Z,98100.38
2022-10-21T04:38:53.677Z,98105.13
2022-10-21T04:41:20.718Z,98112.16
2022-10-21T04:43:47.816Z,98106.78
2022-10-21T04:46:16.875Z,98104.31
2022-10-21T04:48:43.954Z,98095.44
2022-10-21T04:51:11.004Z,98091.31
2022-10-21T04:53:38.015Z,98075.00
2022-10-21T04:56:05.270Z,98071.69
2022-10-21T04:58:32.392Z,98066.34
2022-10-21T05:00:59.510Z,98067.75
2022-10-21T05:03:26.647Z,98061.59
2022-10-21T05:05:53.731Z,98057.25
2022-10-21T05:08:21.122Z,98051.88
2022-10-21T05:10:48.235Z,98056.22
2022-10-21T05:13:15.449Z,98056.22
2022-10-21T05:15:42.484Z,98056.22
2022-10-21T05:18:09.502Z,98052.69
2022-10-21T05:20:36.586Z,98050.22
2022-10-21T05:23:03.614Z,98049.19
2022-10-21T05:25:34.136Z,98048.56
2022-10-21T05:28:01.903Z,98060.34
2022-10-21T05:30:29.008Z,98052.28
2022-10-21T05:32:56.080Z,98052.09
2022-10-21T05:35:23.112Z,98060.13
2022-10-21T05:37:50.170Z,98070.88
2022-10-21T05:40:18.471Z,98065.31
2022-10-21T05:42:45.768Z,98064.69
2022-10-21T05:45:13.227Z,98072.72
2022-10-21T05:47:40.681Z,98059.31
2022-10-21T05:50:08.389Z,98063.03
2022-10-21T05:52:35.548Z,98075.41
2022-10-21T05:55:02.672Z,98073.34
2022-10-21T05:57:31.917Z,98073.34
2022-10-21T05:59:58.946Z,98074.19
2022-10-21T06:02:26.048Z,98081.41
2022-10-21T06:04:53.180Z,98082.00
2022-10-21T06:07:20.266Z,98091.13
2022-10-21T06:09:47.321Z,98083.84
2022-10-21T06:12:14.349Z,98091.72
2022-10-21T06:14:41.335Z,98098.75
2022-10-21T06:17:08.351Z,98096.06
2022-10-21T06:19:35.396Z,98095.22
2022-10-21T06:22:02.417Z,98104.09
2022-10-21T06:24:30.003Z,98108.03
2022-10-21T06:26:57.007Z,98106.38
2022-10-21T06:29:24.261Z,98104.28
2022-10-21T06:31:51.518Z,98103.47
2022-10-21T06:36:50.639Z,98108.22
2022-10-21T06:39:17.629Z,98117.94
2022-10-21T06:41:44.796Z,98105.09
2022-10-21T06:44:17.136Z,98123.50
2022-10-21T06:46:44.213Z,98123.50
2022-10-21T06:49:11.294Z,98134.84
2022-10-21T06:51:38.330Z,98131.13
2022-10-21T06:54:05.402Z,98131.13
2022-10-21T06:56:32.729Z,98132.75
2022-10-21T06:59:00.147Z,98137.09
2022-10-21T07:01:47.949Z,98140.41
2022-10-21T07:04:20.139Z,98139.38
2022-10-21T07:06:47.284Z,98147.03
2022-10-21T07:09:14.510Z,98150.31
2022-10-21T07:11:41.674Z,98145.75
2022-10-21T07:14:08.690Z,98143.91
2022-10-21T07:16:36.631Z,98134.19
2022-10-21T07:19:03.957Z,98131.50
2022-10-21T07:21:31.915Z,98125.09
2022-10-21T07:23:59.818Z,98123.03
2022-10-21T07:26:28.562Z,98125.72
2022-10-21T07:28:58.250Z,98124.69
2022-10-21T07:31:25.825Z,98140.16
2022-10-21T07:33:53.044Z,98139.31
2022-10-21T07:36:22.406Z,98138.03
2022-10-21T07:38:50.332Z,98119.84
2022-10-21T07:41:18.688Z,98116.88
2022-10-21T07:43:45.832Z,98124.22
2022-10-21T07:46:12.967Z,98118.66
2022-10-21T07:48:40.288Z,98132.72
2022-10-21T07:51:08.934Z,98123.16
2022-10-21T07:53:36.132Z,98128.72
2022-10-21T07:56:04.851Z,98135.31
2022-10-21T07:58:32.111Z,98125.75
2022-10-21T08:01:00.531Z,98134.22
2022-10-21T08:03:27.993Z,98143.28
2022-10-21T08:05:55.543Z,98146.38
2022-10-21T08:08:23.120Z,98150.94
2022-10-21T08:10:51.482Z,98166.31
2022-10-21T08:13:18.972Z,98164.81
2022-10-21T08:15:49.881Z,98170.81
2022-10-21T08:18:17.809Z,98178.63
2022-10-21T08:20:45.841Z,98176.53
2022-10-21T08:23:13.911Z,98186.44
2022-10-21T08:25:46.702Z,98184.34
2022-10-21T08:28:13.977Z,98175.44
2022-10-21T08:30:41.418Z,98175.22
2022-10-21T08:33:08.469Z,98174.81
2022-10-21T08:35:35.617Z,98188.41
2022-10-21T08:38:02.756Z,98176.78
2022-10-21T08:40:31.971Z,98172.00
2022-10-21T08:43:06.419Z,98171.59
2022-10-21T08:45:42.702Z,98165.31
2022-10-21T08:48:13.062Z,98163.38
2022-10-21T08:50:42.512Z,98160.84
2022-10-21T08:53:15.596Z,98165.81
2022-10-21T08:55:43.843Z,98162.06
2022-10-21T08:58:16.389Z,98168.88
2022-10-21T09:00:53.568Z,98153.19
2022-10-21T09:03:26.487Z,98155.03
2022-10-21T09:05:58.601Z,98150.84
2022-10-21T09:08:28.489Z,98160.78
2022-10-21T09:10:59.547Z,98177.78
2022-10-21T09:13:38.271Z,98179.00
2022-10-21T09:16:10.183Z,98199.25
2022-10-21T09:18:51.432Z,98209.22
2022-10-21T09:21:22.798Z,98218.94
2022-10-21T09:23:49.781Z,98229.50
2022-10-21T09:26:26.572Z,98239.25
2022-10-21T09:28:57.034Z,98223.44
2022-10-21T09:31:24.052Z,98218.88
2022-10-21T09:33:56.946Z,98212.09
2022-10-21T09:36:27.344Z,98211.00
2022-10-21T09:38:58.123Z,98219.72
2022-10-21T09:41:28.716Z,98224.06
2022-10-21T09:43:56.201Z,98234.00
2022-10-21T09:46:23.458Z,98234.84
2022-10-21T09:51:45.032Z,98238.91
2022-10-21T09:54:17.147Z,98248.41
2022-10-21T09:56:46.382Z,98248.19
2022-10-21T09:59:14.855Z,98250.44
2022-10-21T10:01:43.464Z,98247.94
2022-10-21T10:04:11.973Z,98255.97
2022-10-21T10:06:40.581Z,98267.13
2022-10-21T10:09:14.609Z,98259.88
2022-10-21T10:11:49.019Z,98260.47
2022-10-21T10:14:42.361Z,98256.09
2022-10-21T10:17:21.938Z,98255.41
2022-10-21T10:20:04.497Z,98260.38
2022-10-21T10:22:37.714Z,98255.94
2022-10-21T10:25:09.214Z,98269.56
2022-10-21T10:27:36.554Z,98264.72
2022-10-21T10:30:03.846Z,98272.13
2022-10-21T10:32:33.651Z,98261.72
2022-10-21T10:35:03.191Z,98266.44
2022-10-21T10:37:34.617Z,98256.88
2022-10-21T10:40:03.980Z,98253.47
2022-10-21T10:42:35.973Z,98238.25
2022-10-21T10:45:12.784Z,98239.47
2022-10-21T10:47:46.298Z,98227.63
2022-10-21T10:50:31.920Z,98220.13
2022-10-21T10:53:17.116Z,98208.88
2022-10-21T10:55:45.456Z,98203.09
2022-10-21T10:58:15.472Z,98188.94
2022-10-21T11:00:47.790Z,98206.06
2022-10-21T11:03:20.928Z,98191.47
2022-10-21T11:05:52.057Z,98183.16
2022-10-21T11:08:33.258Z,98194.34
2022-10-21T11:11:07.061Z,98180.63
2022-10-21T11:13:38.819Z,98166.53
2022-10-21T11:16:11.413Z,98175.47
2022-10-21T11:18:50.109Z,98202.78
2022-10-21T11:21:17.169Z,98205.88
2022-10-21T11:24:05.316Z,98186.28
2022-10-21T11:26:51.172Z,98198.50
2022-10-21T11:29:21.323Z,98203.44
2022-10-21T11:32:10.703Z,98209.81
2022-10-21T11:34:47.608Z,98209.34
2022-10-21T11:37:17.519Z,98207.84
2022-10-21T11:39:56.763Z,98225.00
2022-10-21T11:42:31.375Z,98213.28
2022-10-21T11:45:02.990Z,98218.78
2022-10-21T11:47:40.894Z,98206.72
2022-10-21T11:50:34.219Z,98203.03
2022-10-21T11:53:14.260Z,98203.28
2022-10-21T11:55:47.715Z,98219.16
2022-10-21T11:58:28.767Z,98232.69
2022-10-21T12:00:55.783Z,98230.09
2022-10-21T12:03:36.876Z,98246.69
2022-10-21T12:06:12.821Z,98243.88
2022-10-21T12:08:49.463Z,98236.94
2022-10-21T12:11:24.346Z,98250.31
2022-10-21T12:13:54.211Z,98259.75
2022-10-21T12:16:30.373Z,98259.53
2022-10-21T12:18:59.287Z,98257.16
2022-10-21T12:21:28.696Z,98265.63
2022-10-21T12:24:11.531Z,98271.38
2022-10-21T12:26:42.400Z,98278.00
2022-10-21T12:29:12.605Z,98279.38
2022-10-21T12:32:01.819Z,98279.53
2022-10-21T12:34:29.407Z,98260.09
2022-10-21T12:36:56.531Z,98286.69
2022-10-21T12:39:32.395Z,98285.63
2022-10-21T12:42:06.795Z,98285.16
2022-10-21T12:44:34.056Z,98277.63
2022-10-21T12:47:02.663Z,98281.28
2022-10-21T12:49:34.111Z,98284.22
2022-10-21T12:52:01.135Z,98286.09
2022-10-21T12:54:30.868Z,98291.50
2022-10-21T12:57:00.292Z,98292.56
2022-10-21T12:59:32.282Z,98285.53
2022-10-21T13:02:05.239Z,98280.13
2022-10-21T13:04:32.255Z,98277.88
2022-10-21T13:07:01.224Z,98279.28
2022-10-21T13:09:31.266Z,98280.69
2022-10-21T13:12:10.243Z,98283.75
2022-10-21T13:14:50.379Z,98281.41
2022-10-21T13:17:20.447Z,98273.88
2022-10-21T13:20:06.054Z,98266.22
2022-10-21T13:22:38.149Z,98258.09
2022-10-21T13:25:23.565Z,98263.78
2022-10-21T13:27:54.772Z,98257.66
2022-10-21T13:30:51.442Z,98273.53
2022-10-21T13:33:20.134Z,98269.28
2022-10-21T13:35:48.684Z,98272.69
2022-10-21T13:38:18.839Z,98274.91
2022-10-21T13:40:50.959Z,98263.50
2022-10-21T13:43:21.942Z,98261.28
2022-10-21T13:45:50.075Z,98260.56
2022-10-21T13:48:21.164Z,98265.63
2022-10-21T13:50:50.055Z,98278.00
2022-10-21T13:53:17.081Z,98272.34
2022-10-21T13:56:01.143Z,98269.78
2022-10-21T13:58:29.357Z,98260.00
2022-10-21T14:00:58.855Z,98272.81
2022-10-21T14:03:27.914Z,98273.19
2022-10-21T14:05:58.169Z,98267.75
2022-10-21T14:08:27.157Z,98262.34
2022-10-21T14:10:57.614Z,98269.28
2022-10-21T14:13:28.777Z,98275.75
2022-10-21T14:15:56.099Z,98284.47
2022-10-21T14:18:28.744Z,98282.22
2022-10-21T14:20:57.859Z,98276.47
2022-10-21T14:23:25.223Z,98276.47
2022-10-21T14:25:54.034Z,98273.53
2022-10-21T14:28:22.106Z,98282.22
2022-10-21T14:30:49.869Z,98282.22
2022-10-21T14:33:22.780Z,98278.47
2022-10-21T14:36:06.468Z,98275.53
2022-10-21T14:38:41.706Z,98269.06
2022-10-21T14:41:13.691Z,98282.34
2022-10-21T14:43:42.070Z,98290.25
2022-10-21T14:46:10.010Z,98289.97
2022-10-21T14:48:45.545Z,98281.03
2022-10-21T14:51:21.168Z,98266.13
2022-10-21T14:53:59.812Z,98260.69
2022-10-21T14:56:33.754Z,98262.59
2022-10-21T14:59:03.539Z,98267.16
2022-10-21T15:01:30.778Z,98269.88
2022-10-21T15:03:59.819Z,98271.75
2022-10-21T15:06:28.673Z,98273.63
2022-10-21T15:08:55.721Z,98269.28
2022-10-21T15:11:34.093Z,98271.41
2022-10-21T15:14:06.106Z,98257.88
2022-10-21T15:19:06.937Z,98278.34
2022-10-21T15:21:45.441Z,98281.88
2022-10-21T15:24:20.695Z,98268.59
2022-10-21T15:26:49.202Z,98267.53
2022-10-21T15:29:22.243Z,98262.59
2022-10-21T15:31:49.256Z,98260.97
2022-10-21T15:34:16.535Z,98261.41
2022-10-21T15:36:44.147Z,98259.75
2022-10-21T15:39:11.754Z,98254.56
2022-10-21T15:41:39.193Z,98261.03
2022-10-21T15:44:26.535Z,98262.34
2022-10-21T15:46:58.265Z,98242.81
2022-10-21T15:49:27.048Z,98246.81
2022-10-21T15:51:54.162Z,98245.41
2022-10-21T15:54:21.383Z,98251.28
2022-10-21T15:56:50.454Z,98249.63
2022-10-21T15:59:17.531Z,98246.81
2022-10-21T16:01:44.970Z,98250.00
2022-10-21T16:04:12.195Z,98241.53
2022-10-21T16:06:39.665Z,98247.19
2022-10-21T16:09:06.801Z,98241.44
2022-10-21T16:11:40.642Z,98253.75
2022-10-21T16:14:10.160Z,98244.22
2022-10-21T16:16:38.231Z,98243.06
2022-10-21T16:19:05.471Z,98238.13
2022-10-21T16:21:32.519Z,98234.84
2022-10-21T16:23:59.635Z,98235.31
2022-10-21T16:26:28.075Z,98237.66
2022-10-21T16:28:55.849Z,98238.94
2022-10-21T16:31:23.413Z,98245.41
2022-10-21T16:33:50.463Z,98248.59
2022-10-21T16:36:27.674Z,98248.81
2022-10-21T16:38:54.824Z,98254.69
2022-10-21T16:41:25.213Z,98269.84
2022-10-21T16:43:52.307Z,98269.03
2022-10-21T16:46:33.373Z,98270.31
2022-10-21T16:49:02.668Z,98271.94
2022-10-21T16:51:30.544Z,98269.72
2022-10-21T16:53:57.617Z,98275.38
2022-10-21T16:56:24.691Z,98273.13
2022-10-21T16:58:52.515Z,98280.66
2022-10-21T17:01:20.823Z,98277.34
2022-10-21T17:03:47.941Z,98283.19
2022-10-21T17:06:16.345Z,98275.34
2022-10-21T17:08:43.491Z,98274.53
2022-10-21T17:11:15.883Z,98274.75
2022-10-21T17:13:43.338Z,98273.94
2022-10-21T17:16:10.490Z,98257.09
2022-10-21T17:18:37.814Z,98250.88
2022-10-21T17:21:05.735Z,98254.06
2022-10-21T17:23:32.901Z,98252.63
2022-10-21T17:25:59.948Z,98263.91
2022-10-21T17:28:27.028Z,98266.03
2022-10-21T17:30:54.838Z,98269.28
2022-10-21T17:33:21.921Z,98286.59
2022-10-21T17:35:48.966Z,98287.63
2022-10-21T17:38:16.072Z,98291.84
2022-10-21T17:40:43.206Z,98294.53
2022-10-21T17:43:10.228Z,98286.44
2022-10-21T17:45:37.330Z,98282.91
2022-10-21T17:48:04.695Z,98282.69
2022-10-21T17:50:32.705Z,98283.13
2022-10-21T17:53:00.004Z,98284.78
2022-10-21T17:55:27.294Z,98283.13
2022-10-21T17:57:54.351Z,98282.09
2022-10-21T18:00:21.472Z,98276.69
2022-10-21T18:02:48.659Z,98271.28
2022-10-21T18:05:15.862Z,98277.72
2022-10-21T18:07:42.866Z,98286.31
2022-10-21T18:10:10.031Z,98283.84
2022-10-21T18:12:37.286Z,98280.31
2022-10-21T18:15:04.842Z,98292.97
2022-10-21T18:17:32.510Z,98286.19
2022-10-21T18:19:59.557Z,98287.81
2022-10-21T18:22:26.587Z,98272.69
2022-10-21T18:24:53.750Z,98280.53
2022-10-21T18:27:20.868Z,98282.19
2022-10-21T18:29:48.078Z,98287.81
2022-10-21T18:32:15.186Z,98283.47
2022-10-21T18:34:42.453Z,98278.06
2022-10-21T18:37:09.695Z,98285.56
2022-10-21T18:39:36.693Z,98293.69
2022-10-21T18:42:04.120Z,98282.06
2022-10-21T18:44:31.219Z,98279.56
2022-10-21T18:46:58.201Z,98277.09
2022-10-21T18:49:25.315Z,98267.38
2022-10-21T18:51:52.357Z,98257.63
2022-10-21T18:54:19.376Z,98253.03
2022-10-21T18:56:46.431Z,98256.97
2022-10-21T18:59:13.514Z,98248.06
2022-10-21T19:01:40.628Z,98252.84
2022-10-21T19:04:07.848Z,98264.72
2022-10-21T19:06:43.113Z,98258.72
2022-10-21T19:09:14.692Z,98242.53
2022-10-21T19:11:42.268Z,98245.47
2022-10-21T19:14:13.018Z,98240.28
2022-10-21T19:16:42.102Z,98235.94
2022-10-21T19:19:09.342Z,98236.16
2022-10-21T19:21:36.690Z,98233.69
2022-10-21T19:24:04.305Z,98240.16
2022-10-21T19:26:32.200Z,98225.44
2022-10-21T19:29:19.773Z,98241.06
2022-10-21T19:34:19.952Z,98236.94
2022-10-21T19:36:46.993Z,98237.16
2022-10-21T19:39:14.052Z,98243.38
2022-10-21T19:41:41.327Z,98242.56
2022-10-21T19:44:08.435Z,98241.72
2022-10-21T19:46:35.943Z,98249.25
2022-10-21T19:49:06.599Z,98243.47
2022-10-21T19:51:34.174Z,98243.91
2022-10-21T19:54:03.541Z,98256.84
2022-10-21T19:56:34.056Z,98261.41
2022-10-21T19:59:04.544Z,98260.59
2022-10-21T20:01:32.341Z,98259.97
2022-10-21T20:04:00.631Z,98270.78
2022-10-21T20:06:31.956Z,98273.47
2022-10-21T20:09:01.034Z,98272.66
2022-10-21T20:11:29.003Z,98275.13
2022-10-21T20:13:56.289Z,98270.78
2022-10-21T20:16:30.792Z,98273.47
2022-10-21T20:18:59.435Z,98279.91
2022-10-21T20:21:27.079Z,98282.63
2022-10-21T20:23:54.324Z,98278.53
2022-10-21T20:26:22.667Z,98280.38
2022-10-21T20:28:50.940Z,98274.38
2022-10-21T20:31:19.039Z,98284.34
2022-10-21T20:33:47.367Z,98285.19
2022-10-21T20:36:16.530Z,98287.88
2022-10-21T20:38:43.759Z,98273.34
2022-10-21T20:41:12.067Z,98285.19
2022-10-21T20:43:40.214Z,98277.31
2022-10-21T20:46:09.001Z,98283.53
2022-10-21T20:48:36.705Z,98284.56
2022-10-21T20:51:04.841Z,98284.56
2022-10-21T20:53:31.955Z,98284.56
2022-10-21T20:55:59.129Z,98284.56
2022-10-21T20:58:26.410Z,98280.22
2022-10-21T21:00:53.397Z,98278.59
2022-10-21T21:03:20.444Z,98275.28
2022-10-21T21:05:47.509Z,98279.03
2022-10-21T21:08:14.610Z,98266.59
2022-10-21T21:10:41.699Z,98272.22
2022-10-21T21:13:08.811Z,98265.16
2022-10-21T21:15:36.066Z,98270.81
2022-10-21T21:18:04.101Z,98268.31
2022-10-21T21:20:31.534Z,98267.50
2022-10-21T21:22:59.286Z,98255.50
2022-10-21T21:25:26.335Z,98263.00
2022-10-21T21:27:53.365Z,98260.53
2022-10-21T21:30:20.453Z,98249.97
2022-10-21T21:32:47.498Z,98256.41
2022-10-21T21:35:14.590Z,98256.41
2022-10-21T21:37:41.629Z,98248.53
2022-10-21T21:40:09.068Z,98245.47
2022-10-21T21:42:36.146Z,98243.22
2022-10-21T21:45:03.275Z,98236.19
2022-10-21T21:47:30.390Z,98234.75
2022-10-21T21:49:57.467Z,98231.66
2022-10-21T21:52:25.783Z,98220.75
2022-10-21T21:54:55.293Z,98224.13
2022-10-21T21:57:27.651Z,98216.69
2022-10-21T21:59:55.230Z,98216.13
2022-10-21T22:02:22.276Z,98213.41
2022-10-21T22:04:49.344Z,98215.03
2022-10-21T22:07:16.451Z,98209.44
2022-10-21T22:09:43.447Z,98216.47
2022-10-21T22:12:14.350Z,98211.91
2022-10-21T22:14:42.111Z,98212.13
2022-10-21T22:17:09.114Z,98221.25
2022-10-21T22:19:36.215Z,98225.25
2022-10-21T22:22:03.601Z,98228.16
2022-10-21T22:27:04.240Z,98227.53
2022-10-21T22:29:31.284Z,98248.91
2022-10-21T22:31:58.403Z,98257.19
2022-10-21T22:34:25.499Z,98256.38
2022-10-21T22:36:52.515Z,98254.50
2022-10-21T22:39:19.564Z,98256.38
2022-10-21T22:41:46.594Z,98256.38
2022-10-21T22:44:14.013Z,98251.81
2022-10-21T22:46:41.087Z,98253.25
2022-10-21T22:49:09.450Z,98255.47
2022-10-21T22:51:36.489Z,98251.75
2022-10-21T22:54:03.634Z,98257.13
2022-10-21T22:56:30.723Z,98254.44
2022-10-21T22:58:58.056Z,98262.53
2022-10-21T23:01:29.019Z,98262.09
2022-10-21T23:04:02.765Z,98267.47
2022-10-21T23:06:33.861Z,98266.66
2022-10-21T23:09:01.700Z,98261.06
2022-10-21T23:11:28.964Z,98272.41
2022-10-21T23:14:02.689Z,98276.19
2022-10-21T23:16:33.862Z,98271.22
2022-10-21T23:19:00.975Z,98279.94
2022-10-21T23:21:28.434Z,98279.94
2022-10-21T23:23:55.530Z,98284.28
2022-10-21T23:26:22.570Z,98289.41
2022-10-21T23:28:49.590Z,98290.25
2022-10-21T23:31:16.710Z,98295.41
2022-10-21T23:33:43.775Z,98295.22
2022-10-21T23:36:10.777Z,98287.72
2022-10-21T23:38:37.830Z,98285.03
2022-10-21T23:41:04.924Z,98283.97
2022-10-21T23:43:31.984Z,98283.38
2022-10-21T23:45:59.020Z,98279.84
2022-10-21T23:48:26.020Z,98277.16
2022-10-21T23:50:53.098Z,98275.28
2022-10-21T23:53:20.112Z,98271.53
2022-10-21T23:55:47.183Z,98274.00
2022-10-21T23:58:14.237Z,98280.00
